Time;durP1;ratioP1;P1;durP2;ratioP2;P2;SDS_P1;SDS_P2;PMS_P1;PMS_P2;Temp;Humidity;BMP_temperature;BMP_pressure;BME280_temperature;BME280_humidity;BME280_pressure;Samples;Min_cycle;Max_cycle;Signal;HPM_P1;HPM_P2
2021/04/11 00:01:39;;;;;;;18.50;6.90;;;;;;;3.30;94.80;101133.38;5042893;28;20068;-78
2021/04/11 00:04:05;;;;;;;21.70;8.32;;;;;;;3.34;95.15;101141.00;5084861;28;20519;-78
2021/04/11 00:06:31;;;;;;;21.90;8.45;;;;;;;3.39;95.14;101134.63;5054563;28;20066;-80
2021/04/11 00:08:56;;;;;;;28.42;9.80;;;;;;;3.41;95.62;101135.34;5080775;28;20508;-77
2021/04/11 00:11:22;;;;;;;21.88;9.50;;;;;;;3.45;95.54;101131.66;5058000;28;20051;-79
2021/04/11 00:13:52;;;;;;;24.80;10.00;;;;;;;3.49;96.13;101120.16;5049551;28;20168;-77
2021/04/11 00:16:17;;;;;;;24.20;10.38;;;;;;;3.60;95.67;101111.75;5070763;28;20048;-78
2021/04/11 00:18:43;;;;;;;26.73;12.07;;;;;;;3.62;95.88;101109.91;5053743;28;20047;-79
2021/04/11 00:21:10;;;;;;;31.17;11.57;;;;;;;3.68;95.91;101103.50;5069673;28;20052;-77
2021/04/11 00:23:36;;;;;;;26.38;11.68;;;;;;;3.75;95.90;101099.63;5071867;28;20169;-79
2021/04/11 00:26:03;;;;;;;28.00;11.60;;;;;;;3.74;95.68;101086.72;5069984;28;20097;-78
2021/04/11 00:28:36;;;;;;;23.73;11.57;;;;;;;3.76;96.07;101077.09;5054052;28;20053;-78
2021/04/11 00:31:02;;;;;;;29.38;12.57;;;;;;;3.80;95.70;101079.38;5054039;28;20056;-80
2021/04/11 00:33:29;;;;;;;28.35;13.00;;;;;;;3.80;96.03;101070.78;5081070;28;20033;-77
2021/04/11 00:36:01;;;;;;;32.42;13.27;;;;;;;3.82;96.05;101067.16;5052880;28;20041;-77
2021/04/11 00:38:28;;;;;;;30.42;14.05;;;;;;;3.85;96.41;101061.78;5070745;28;20080;-78
2021/04/11 00:40:57;;;;;;;29.27;12.88;;;;;;;3.82;96.39;101050.75;5070513;28;20048;-80
2021/04/11 00:43:25;;;;;;;33.67;13.45;;;;;;;3.89;96.28;101059.81;5052475;28;20041;-78
2021/04/11 00:46:07;;;;;;;40.00;15.55;;;;;;;3.90;96.89;101046.75;5054395;28;20032;-78
2021/04/11 00:48:35;;;;;;;31.17;15.63;;;;;;;3.99;96.51;101045.31;5065005;28;20303;-77
2021/04/11 00:51:11;;;;;;;35.67;16.02;;;;;;;4.01;96.98;101033.13;5049385;28;20099;-78
2021/04/11 00:53:37;;;;;;;36.30;16.90;;;;;;;4.04;97.03;101034.66;5053886;28;20041;-78
2021/04/11 00:56:04;;;;;;;41.22;18.08;;;;;;;4.06;96.79;101023.25;5050617;28;20044;-79
2021/04/11 00:58:31;;;;;;;38.92;17.55;;;;;;;4.16;97.11;101020.06;5040704;28;20048;-77
2021/04/11 01:00:58;;;;;;;38.95;19.00;;;;;;;4.21;97.28;101020.63;5085118;28;20044;-77
2021/04/11 01:03:29;;;;;;;38.20;19.50;;;;;;;4.25;97.42;101022.09;5063776;28;20092;-79
2021/04/11 01:05:56;;;;;;;39.92;18.85;;;;;;;4.29;97.14;101013.16;5064415;28;21400;-80
2021/04/11 01:08:30;;;;;;;39.42;20.63;;;;;;;4.34;97.28;100999.88;5071650;28;20036;-77
2021/04/11 01:11:27;;;;;;;37.58;19.95;;;;;;;4.38;97.77;100990.97;5070022;28;20032;-78
2021/04/11 01:13:57;;;;;;;44.08;21.40;;;;;;;4.43;97.32;100989.72;5057844;28;20045;-78
2021/04/11 01:16:25;;;;;;;45.88;23.00;;;;;;;4.44;97.47;100973.19;5050817;28;20398;-80
2021/04/11 01:18:54;;;;;;;42.45;21.25;;;;;;;4.51;97.95;100968.44;5054608;28;20071;-80
2021/04/11 01:22:00;;;;;;;46.33;22.50;;;;;;;4.55;97.82;100959.50;5088161;28;20112;-78
2021/04/11 01:24:42;;;;;;;42.42;22.25;;;;;;;4.58;97.33;100956.72;5017918;28;20156;-78
2021/04/11 01:27:11;;;;;;;41.70;22.70;;;;;;;4.62;97.52;100942.56;5055087;28;20048;-78
2021/04/11 01:29:39;;;;;;;41.55;21.95;;;;;;;4.63;97.17;100940.81;5054232;28;20044;-81
2021/04/11 01:32:06;;;;;;;45.58;23.25;;;;;;;4.63;97.23;100938.19;5071464;28;20032;-78
2021/04/11 01:34:33;;;;;;;46.42;22.77;;;;;;;4.64;97.60;100929.50;5070798;28;20461;-78
2021/04/11 01:37:00;;;;;;;45.17;23.20;;;;;;;4.66;97.52;100932.81;5054230;28;20792;-78
2021/04/11 01:39:29;;;;;;;46.38;22.85;;;;;;;4.67;97.67;100937.91;5052763;28;20045;-79
2021/04/11 01:41:57;;;;;;;45.03;23.10;;;;;;;4.72;97.61;100928.97;5042400;28;20086;-80
2021/04/11 01:44:27;;;;;;;42.13;22.90;;;;;;;4.71;97.68;100914.28;5052022;28;20044;-80
2021/04/11 01:46:52;;;;;;;44.67;23.83;;;;;;;4.75;97.64;100926.16;5052716;28;20659;-79
2021/04/11 01:49:20;;;;;;;44.33;23.45;;;;;;;4.78;97.23;100924.16;5052322;28;20037;-80
2021/04/11 01:51:51;;;;;;;45.25;24.77;;;;;;;4.79;97.74;100917.22;5053401;28;20041;-78
2021/04/11 01:54:22;;;;;;;43.55;23.25;;;;;;;4.78;98.03;100908.56;5086666;28;20056;-81
2021/04/11 01:56:49;;;;;;;44.97;24.27;;;;;;;4.78;97.41;100895.56;5089110;28;20520;-78
2021/04/11 01:59:24;;;;;;;51.15;26.00;;;;;;;4.82;97.68;100891.84;5054253;28;20123;-81
2021/04/11 02:01:51;;;;;;;51.55;25.83;;;;;;;4.80;97.76;100898.06;5067445;28;20040;-79
2021/04/11 02:04:20;;;;;;;46.05;24.92;;;;;;;4.79;97.71;100886.03;5051592;28;20051;-79
2021/04/11 02:06:53;;;;;;;49.58;25.35;;;;;;;4.81;98.25;100882.38;5071753;28;20039;-81
2021/04/11 02:09:30;;;;;;;47.05;25.27;;;;;;;4.84;97.98;100889.13;5054539;28;20044;-78
2021/04/11 02:12:18;;;;;;;49.30;26.55;;;;;;;4.87;97.47;100887.16;5051424;28;20033;-78
2021/04/11 02:14:48;;;;;;;53.17;26.30;;;;;;;4.87;97.82;100881.94;5068881;28;20048;-77
2021/04/11 02:17:16;;;;;;;56.10;29.02;;;;;;;4.87;98.27;100883.72;5069883;28;20040;-79
2021/04/11 02:19:43;;;;;;;59.17;29.27;;;;;;;4.88;98.04;100873.22;5051665;28;20050;-78
2021/04/11 02:22:21;;;;;;;52.63;27.88;;;;;;;4.89;98.52;100868.84;5071864;28;20122;-80
2021/04/11 02:24:47;;;;;;;56.47;28.80;;;;;;;4.92;98.15;100860.84;5037485;28;20059;-80
2021/04/11 02:27:16;;;;;;;59.70;30.25;;;;;;;4.92;98.17;100863.44;5018776;28;20067;-80
2021/04/11 02:29:45;;;;;;;61.05;29.58;;;;;;;4.94;98.07;100858.97;5074615;28;20067;-79
2021/04/11 02:32:11;;;;;;;59.33;30.33;;;;;;;4.95;98.32;100860.63;5070475;28;20044;-77
2021/04/11 02:34:37;;;;;;;61.10;30.23;;;;;;;4.96;98.10;100854.50;5052301;28;20090;-79
2021/04/11 02:37:11;;;;;;;57.33;30.95;;;;;;;5.01;98.55;100856.75;5063509;28;20044;-79
2021/04/11 02:39:42;;;;;;;60.97;31.77;;;;;;;5.02;98.66;100856.66;5065820;28;20070;-80
2021/04/11 02:42:17;;;;;;;57.00;31.73;;;;;;;5.03;98.70;100855.75;5054131;28;20049;-79
2021/04/11 02:44:45;;;;;;;66.05;33.00;;;;;;;5.05;98.21;100845.22;5049104;28;20040;-79
2021/04/11 02:47:13;;;;;;;62.78;33.15;;;;;;;5.05;98.37;100843.47;5036280;28;20114;-80
2021/04/11 02:49:39;;;;;;;66.88;34.72;;;;;;;5.06;98.18;100844.28;5025896;28;20055;-81
2021/04/11 02:52:08;;;;;;;69.30;34.97;;;;;;;5.06;98.48;100831.28;5055927;28;20044;-80
2021/04/11 02:54:36;;;;;;;73.72;36.40;;;;;;;5.08;98.60;100826.81;5051521;28;20071;-78
2021/04/11 02:57:10;;;;;;;64.53;34.97;;;;;;;5.11;98.67;100823.16;5084635;28;20040;-83
2021/04/11 02:59:39;;;;;;;69.22;35.92;;;;;;;5.09;98.83;100820.69;5067452;28;20528;-77
2021/04/11 03:02:05;;;;;;;70.75;36.25;;;;;;;5.13;98.91;100821.28;5067717;28;20040;-78
2021/04/11 03:04:35;;;;;;;72.13;36.10;;;;;;;5.10;99.13;100814.50;5080872;28;20048;-79
2021/04/11 03:07:09;;;;;;;71.90;36.55;;;;;;;5.09;99.07;100815.47;5066026;28;20689;-79
2021/04/11 03:09:40;;;;;;;71.72;36.70;;;;;;;5.13;98.95;100806.50;5069371;28;20055;-80
2021/04/11 03:12:10;;;;;;;67.72;36.20;;;;;;;5.14;99.14;100815.13;5052694;28;20052;-79
2021/04/11 03:14:41;;;;;;;67.00;35.70;;;;;;;5.17;99.15;100817.53;5055725;28;20560;-79
2021/04/11 03:17:14;;;;;;;68.85;36.50;;;;;;;5.13;99.06;100809.09;5038935;28;20044;-78
2021/04/11 03:19:46;;;;;;;65.47;36.55;;;;;;;5.20;98.91;100814.72;5054873;28;20124;-79
2021/04/11 03:22:17;;;;;;;69.97;36.28;;;;;;;5.21;99.23;100816.34;5069657;28;20525;-78
2021/04/11 03:24:43;;;;;;;63.97;34.97;;;;;;;5.20;99.39;100819.91;5051012;28;20048;-77
2021/04/11 03:27:27;;;;;;;64.53;35.40;;;;;;;5.23;99.56;100809.28;5070793;28;20463;-80
2021/04/11 03:30:03;;;;;;;69.22;38.00;;;;;;;5.23;99.22;100806.69;5080763;28;20401;-80
2021/04/11 03:32:36;;;;;;;67.22;36.35;;;;;;;5.23;99.10;100804.06;5051458;28;20098;-79
2021/04/11 03:35:07;;;;;;;68.00;36.40;;;;;;;5.25;99.49;100804.78;5047650;28;20041;-79
2021/04/11 03:37:35;;;;;;;68.15;37.10;;;;;;;5.27;99.74;100795.09;5034757;28;20070;-79
2021/04/11 03:40:05;;;;;;;74.40;38.58;;;;;;;5.24;99.50;100793.56;5053161;28;20036;-79
2021/04/11 03:42:40;;;;;;;71.43;38.25;;;;;;;5.29;99.40;100793.22;5047260;28;20048;-78
2021/04/11 03:45:07;;;;;;;70.40;39.00;;;;;;;5.33;99.25;100793.81;5036599;28;20037;-79
2021/04/11 03:47:40;;;;;;;71.40;38.92;;;;;;;5.33;99.32;100786.03;5054090;28;20059;-78
2021/04/11 03:50:06;;;;;;;77.63;39.65;;;;;;;5.33;99.27;100786.03;5049855;28;20052;-78
2021/04/11 03:52:48;;;;;;;78.05;40.42;;;;;;;5.36;99.47;100780.63;5086384;28;20048;-79
2021/04/11 03:55:19;;;;;;;75.25;39.42;;;;;;;5.37;99.65;100784.84;5034650;28;20592;-79
2021/04/11 03:57:50;;;;;;;77.75;41.00;;;;;;;5.35;99.48;100785.00;5064061;28;20578;-78
2021/04/11 04:00:45;;;;;;;78.40;41.35;;;;;;;5.37;99.67;100771.84;5067519;28;20049;-79
2021/04/11 04:03:15;;;;;;;76.05;41.38;;;;;;;5.39;99.81;100772.59;5051927;28;20044;-79
2021/04/11 04:05:42;;;;;;;75.97;41.50;;;;;;;5.43;100.00;100776.63;5033393;28;20036;-78
2021/04/11 04:08:11;;;;;;;76.63;40.85;;;;;;;5.38;100.00;100771.75;5072133;28;20046;-79
2021/04/11 04:10:44;;;;;;;77.43;42.53;;;;;;;5.42;100.00;100764.56;5069247;28;20048;-79
2021/04/11 04:13:40;;;;;;;83.20;43.20;;;;;;;5.40;100.00;100764.66;5055906;28;20106;-78
2021/04/11 04:16:27;;;;;;;83.20;42.05;;;;;;;5.43;100.00;100761.03;5051297;28;20044;-79
2021/04/11 04:19:06;;;;;;;76.82;41.38;;;;;;;5.44;100.00;100753.13;5052297;28;20048;-79
2021/04/11 04:21:55;;;;;;;79.30;43.70;;;;;;;5.46;100.00;100758.19;5070387;28;20140;-79
2021/04/11 04:24:49;;;;;;;79.93;43.00;;;;;;;5.47;100.00;100765.06;5061014;28;20118;-78
2021/04/11 04:27:52;;;;;;;83.93;43.50;;;;;;;5.47;100.00;100768.47;5068715;28;20139;-78
2021/04/11 04:30:26;;;;;;;87.00;43.63;;;;;;;5.47;100.00;100765.88;5055052;28;20476;-79
2021/04/11 04:33:09;;;;;;;88.22;44.38;;;;;;;5.51;100.00;100768.25;5087386;28;20127;-78
2021/04/11 04:35:45;;;;;;;79.05;42.40;;;;;;;5.54;100.00;100760.22;5074130;28;20060;-79
2021/04/11 04:38:30;;;;;;;79.97;44.00;;;;;;;5.50;100.00;100758.78;5072793;28;20417;-77
2021/04/11 04:41:28;;;;;;;76.93;43.30;;;;;;;5.56;100.00;100764.38;5072113;28;20028;-78
2021/04/11 04:44:01;;;;;;;83.30;44.40;;;;;;;5.57;100.00;100755.59;5049027;28;20045;-80
2021/04/11 04:46:52;;;;;;;87.00;45.30;;;;;;;5.56;100.00;100758.34;5045382;28;20529;-77
2021/04/11 04:49:31;;;;;;;86.90;45.42;;;;;;;5.61;100.00;100766.63;5070702;28;20056;-79
2021/04/11 04:52:10;;;;;;;85.65;45.35;;;;;;;5.63;100.00;100756.94;5072785;28;20768;-76
2021/04/11 04:54:44;;;;;;;86.43;45.28;;;;;;;5.62;100.00;100757.88;5055123;28;20109;-79
2021/04/11 04:57:21;;;;;;;83.80;46.20;;;;;;;5.65;100.00;100752.44;5038303;28;20036;-77
2021/04/11 05:00:10;;;;;;;82.95;44.88;;;;;;;5.67;100.00;100745.38;5042004;28;20036;-79
2021/04/11 05:03:08;;;;;;;83.13;45.13;;;;;;;5.70;100.00;100747.72;5077373;28;20162;-78
2021/04/11 05:05:40;;;;;;;82.75;45.13;;;;;;;5.71;100.00;100744.19;5056476;28;20075;-78
2021/04/11 05:08:12;;;;;;;84.80;46.03;;;;;;;5.73;100.00;100750.09;5074090;28;20041;-79
2021/04/11 05:10:48;;;;;;;79.70;45.53;;;;;;;5.74;100.00;100740.53;5070423;28;20052;-78
2021/04/11 05:13:24;;;;;;;86.85;46.13;;;;;;;5.76;100.00;100746.44;5066862;28;20498;-79
2021/04/11 05:16:12;;;;;;;80.97;45.00;;;;;;;5.79;100.00;100746.22;5062479;28;20061;-76
2021/04/11 05:18:46;;;;;;;80.15;44.40;;;;;;;5.80;100.00;100740.06;5054477;28;21201;-76
2021/04/11 05:21:27;;;;;;;94.10;48.92;;;;;;;5.79;100.00;100735.81;5066222;28;20123;-78
2021/04/11 05:24:01;;;;;;;89.45;48.25;;;;;;;5.80;100.00;100737.44;5061814;28;20542;-80
2021/04/11 05:26:43;;;;;;;84.60;46.70;;;;;;;5.86;100.00;100734.41;5081020;28;20056;-78
2021/04/11 05:29:22;;;;;;;82.90;46.53;;;;;;;5.85;100.00;100719.72;5043798;28;20073;-74
2021/04/11 05:31:50;;;;;;;85.43;47.70;;;;;;;5.87;100.00;100728.22;5061563;28;20040;-80
2021/04/11 05:34:18;;;;;;;91.97;48.50;;;;;;;5.88;100.00;100721.25;5078206;28;20127;-78
2021/04/11 05:37:01;;;;;;;86.35;46.42;;;;;;;5.89;100.00;100720.31;5056747;28;20052;-77
2021/04/11 05:39:46;;;;;;;89.65;48.50;;;;;;;5.90;100.00;100719.38;5042817;28;20131;-81
2021/04/11 05:42:40;;;;;;;82.35;46.70;;;;;;;5.95;100.00;100722.44;5059842;28;20577;-76
2021/04/11 05:45:32;;;;;;;90.60;48.97;;;;;;;5.93;100.00;100714.75;5074419;28;20048;-77
2021/04/11 05:48:10;;;;;;;86.70;47.30;;;;;;;5.96;100.00;100713.72;5092858;28;20048;-77
2021/04/11 05:51:01;;;;;;;89.47;49.03;;;;;;;5.99;100.00;100710.88;5077753;28;20048;-79
2021/04/11 05:53:34;;;;;;;91.60;49.90;;;;;;;5.98;100.00;100707.44;5078169;28;20060;-80
2021/04/11 05:56:12;;;;;;;85.72;47.33;;;;;;;6.00;100.00;100707.34;5042928;28;20048;-80
2021/04/11 05:58:47;;;;;;;88.78;49.35;;;;;;;6.02;100.00;100706.25;5090355;28;21514;-79
2021/04/11 06:01:17;;;;;;;91.38;50.30;;;;;;;6.07;100.00;100703.31;5059167;28;20044;-78
2021/04/11 06:03:54;;;;;;;92.10;49.05;;;;;;;6.10;100.00;100710.06;5078369;28;20044;-77
2021/04/11 06:06:26;;;;;;;88.07;49.03;;;;;;;6.11;100.00;100707.34;5057889;28;20107;-80
2021/04/11 06:08:52;;;;;;;85.43;48.10;;;;;;;6.18;100.00;100712.91;5077137;28;20131;-76
2021/04/11 06:11:37;;;;;;;80.78;46.97;;;;;;;6.15;100.00;100711.34;5058912;28;20091;-73
2021/04/11 06:14:16;;;;;;;86.78;49.28;;;;;;;6.12;100.00;100705.56;5073905;28;20414;-75
2021/04/11 06:16:42;;;;;;;96.35;49.17;;;;;;;6.13;100.00;100705.44;5055000;28;20081;-76
2021/04/11 06:19:09;;;;;;;88.57;48.88;;;;;;;6.15;100.00;100706.16;5094541;28;20052;-76
2021/04/11 06:21:39;;;;;;;88.15;49.08;;;;;;;6.15;100.00;100694.91;5076585;28;20108;-77
2021/04/11 06:24:24;;;;;;;89.57;49.22;;;;;;;6.17;100.00;100708.66;5061452;28;20447;-78
2021/04/11 06:27:21;;;;;;;87.65;50.10;;;;;;;6.18;100.00;100705.94;5050974;28;20354;-78
2021/04/11 06:30:03;;;;;;;90.85;50.05;;;;;;;6.24;100.00;100707.22;5047951;28;20086;-77
2021/04/11 06:32:41;;;;;;;85.80;48.75;;;;;;;6.25;100.00;100703.66;5062188;28;20048;-75
2021/04/11 06:35:11;;;;;;;89.32;49.67;;;;;;;6.31;100.00;100703.19;5032107;28;20371;-77
2021/04/11 06:37:39;;;;;;;86.47;47.67;;;;;;;6.30;100.00;100711.94;5056284;28;20055;-76
2021/04/11 06:40:16;;;;;;;91.47;49.65;;;;;;;6.35;100.00;100711.59;5076036;28;20032;-78
2021/04/11 06:43:26;;;;;;;82.10;46.40;;;;;;;6.35;100.00;100706.41;5073463;28;20063;-78
2021/04/11 06:46:02;;;;;;;80.90;46.33;;;;;;;6.36;100.00;100715.84;5021146;28;20049;-74
2021/04/11 06:48:51;;;;;;;88.97;48.92;;;;;;;6.37;100.00;100712.31;5020860;28;20052;-78
2021/04/11 06:51:44;;;;;;;90.97;50.90;;;;;;;6.34;100.00;100708.16;5045071;28;20052;-79
2021/04/11 06:54:09;;;;;;;;;;;;;;;6.42;100.00;100715.38;5092003;28;20036;-78
2021/04/11 06:56:42;;;;;;;83.25;47.50;;;;;;;6.45;100.00;100712.53;5058380;28;20350;-79
2021/04/11 06:59:18;;;;;;;83.57;47.40;;;;;;;6.47;100.00;100705.41;5068027;28;20063;-71
2021/04/11 07:02:20;;;;;;;85.72;48.17;;;;;;;6.56;100.00;100714.31;5062204;28;20543;-72
2021/04/11 07:05:08;;;;;;;80.65;47.13;;;;;;;6.66;100.00;100719.59;5053356;28;20052;-75
2021/04/11 07:08:04;;;;;;;78.30;46.60;;;;;;;6.66;100.00;100711.78;5055662;28;20040;-78
2021/04/11 07:11:02;;;;;;;84.15;48.05;;;;;;;6.67;100.00;100711.66;5069025;28;20143;-79
2021/04/11 07:13:52;;;;;;;81.30;47.47;;;;;;;6.69;100.00;100714.97;5067582;28;20101;-76
2021/04/11 07:16:55;;;;;;;83.65;49.38;;;;;;;6.70;100.00;100708.81;5056115;28;20106;-79
2021/04/11 07:19:50;;;;;;;81.53;47.13;;;;;;;6.77;100.00;100711.75;5056688;28;20048;-73
2021/04/11 07:22:50;;;;;;;88.63;49.20;;;;;;;6.77;100.00;100702.16;5072704;28;20084;-80
2021/04/11 07:25:31;;;;;;;83.93;48.28;;;;;;;6.84;100.00;100702.50;5038690;28;20047;-75
2021/04/11 07:28:21;;;;;;;84.68;50.33;;;;;;;6.89;100.00;100710.75;5073006;28;20052;-78
2021/04/11 07:30:59;;;;;;;85.10;47.75;;;;;;;6.89;100.00;100713.38;5039208;28;20041;-77
2021/04/11 07:33:31;;;;;;;87.90;49.85;;;;;;;6.87;100.00;100709.25;5075887;28;20055;-77
2021/04/11 07:36:15;;;;;;;84.90;48.38;;;;;;;6.88;100.00;100710.91;5073906;28;20446;-78
2021/04/11 07:39:18;;;;;;;81.15;47.25;;;;;;;6.94;100.00;100702.59;5073830;28;20040;-78
2021/04/11 07:42:12;;;;;;;78.10;46.47;;;;;;;6.99;100.00;100711.69;5072890;28;20132;-78
2021/04/11 07:45:16;;;;;;;85.35;49.03;;;;;;;7.02;100.00;100711.44;5074384;28;20063;-75
2021/04/11 07:47:47;;;;;;;;;;;;;;;7.09;100.00;100711.78;5073425;28;20044;-77
2021/04/11 07:50:18;;;;;;;87.05;48.17;;;;;;;7.15;100.00;100705.22;5091191;28;20357;-75
2021/04/11 07:52:56;;;;;;;85.32;49.55;;;;;;;7.26;100.00;100701.75;5074277;28;20048;-78
2021/04/11 07:55:46;;;;;;;82.90;50.05;;;;;;;7.32;100.00;100703.84;5091317;28;20048;-76
2021/04/11 07:58:23;;;;;;;85.18;48.80;;;;;;;7.39;100.00;100710.22;5057687;28;20611;-76
2021/04/11 08:01:16;;;;;;;89.68;50.70;;;;;;;7.43;100.00;100716.03;5054565;28;20118;-77
2021/04/11 08:03:52;;;;;;;84.57;48.70;;;;;;;7.58;100.00;100715.56;5046796;28;20044;-78
2021/04/11 08:06:59;;;;;;;81.03;47.25;;;;;;;7.66;100.00;100714.91;5057055;28;20072;-79
2021/04/11 08:09:36;;;;;;;79.82;47.95;;;;;;;7.68;99.64;100720.84;5016914;28;20136;-79
2021/04/11 08:12:39;;;;;;;74.70;46.75;;;;;;;7.80;99.53;100724.22;5048535;28;20041;-73
2021/04/11 08:15:28;;;;;;;76.07;46.67;;;;;;;7.91;99.75;100731.13;5040506;28;20049;-77
2021/04/11 08:18:16;;;;;;;74.30;45.35;;;;;;;7.98;99.07;100730.50;5040097;28;20084;-78
2021/04/11 08:20:50;;;;;;;73.90;45.22;;;;;;;8.13;99.06;100730.16;5077508;28;20122;-80
2021/04/11 08:23:37;;;;;;;76.65;46.13;;;;;;;8.16;99.13;100732.50;5060946;28;20058;-74
2021/04/11 08:26:30;;;;;;;70.55;44.83;;;;;;;8.28;99.25;100722.78;5074946;28;20069;-77
2021/04/11 08:29:15;;;;;;;74.88;43.40;;;;;;;8.58;98.90;100717.53;5075805;28;20826;-78
2021/04/11 08:32:08;;;;;;;66.60;42.15;;;;;;;8.72;98.36;100720.72;5059169;28;20425;-74
2021/04/11 08:34:49;;;;;;;;;;;;;;;8.66;97.65;100723.88;5073675;28;20041;-76
2021/04/11 08:37:37;;;;;;;58.72;38.20;;;;;;;8.66;97.66;100727.31;5073556;28;19962;-76
2021/04/11 08:40:20;;;;;;;59.35;39.28;;;;;;;8.55;97.93;100736.13;5055683;28;20045;-76
2021/04/11 08:43:07;;;;;;;64.57;39.90;;;;;;;8.63;98.31;100730.22;5076673;28;20048;-77
2021/04/11 08:45:42;;;;;;;62.72;38.92;;;;;;;8.66;98.47;100737.78;5027659;28;20045;-75
2021/04/11 08:48:30;;;;;;;64.63;39.47;;;;;;;8.70;97.70;100736.56;5042557;28;20069;-77
2021/04/11 08:51:12;;;;;;;62.80;38.67;;;;;;;8.83;97.51;100738.91;5058386;28;20090;-75
2021/04/11 08:53:51;;;;;;;59.80;37.75;;;;;;;8.93;97.36;100734.53;5072638;28;20101;-75
2021/04/11 08:56:26;;;;;;;56.85;37.70;;;;;;;8.87;97.50;100740.31;5042908;28;20044;-76
2021/04/11 08:59:11;;;;;;;58.25;36.80;;;;;;;8.95;97.45;100726.56;5078111;28;20044;-80
2021/04/11 09:01:48;;;;;;;54.17;34.38;;;;;;;9.13;97.53;100731.94;5076456;28;21235;-79
2021/04/11 09:04:38;;;;;;;50.10;33.67;;;;;;;9.19;96.43;100734.00;5061114;28;20040;-78
2021/04/11 09:07:38;;;;;;;49.10;30.88;;;;;;;9.34;95.30;100724.78;5071570;28;20037;-78
2021/04/11 09:10:18;;;;;;;50.63;30.40;;;;;;;9.53;94.83;100718.69;5091739;28;20539;-76
2021/04/11 09:13:02;;;;;;;45.70;30.20;;;;;;;9.80;94.85;100721.53;5059927;28;20173;-80
2021/04/11 09:15:40;;;;;;;41.75;29.05;;;;;;;10.11;94.08;100727.34;5086583;28;20049;-78
2021/04/11 09:18:24;;;;;;;41.83;28.35;;;;;;;10.49;94.80;100733.41;5039543;28;20559;-78
2021/04/11 09:21:21;;;;;;;34.00;23.92;;;;;;;10.78;91.98;100740.31;5070518;28;20041;-78
2021/04/11 09:23:46;;;;;;;29.65;21.40;;;;;;;10.70;89.96;100741.88;5075843;28;20040;-78
2021/04/11 09:26:36;;;;;;;30.85;20.45;;;;;;;10.67;90.60;100752.66;5057235;28;20555;-79
2021/04/11 09:29:47;;;;;;;28.70;20.90;;;;;;;10.63;91.79;100766.22;5052987;28;20103;-77
2021/04/11 09:32:40;;;;;;;25.25;17.98;;;;;;;10.52;90.56;100754.94;5089753;28;20072;-80
2021/04/11 09:35:13;;;;;;;23.65;15.88;;;;;;;10.34;89.65;100743.59;5059337;28;20057;-75
2021/04/11 09:38:08;;;;;;;22.50;15.75;;;;;;;10.26;91.01;100748.69;5057986;28;20087;-79
2021/04/11 09:40:44;;;;;;;20.42;13.57;;;;;;;10.30;90.06;100758.78;5063871;28;20051;-80
2021/04/11 09:43:29;;;;;;;18.48;13.45;;;;;;;10.51;89.75;100745.44;5073754;28;20882;-79
2021/04/11 09:46:06;;;;;;;19.52;12.73;;;;;;;10.58;87.93;100755.34;5074020;28;20056;-79
2021/04/11 09:48:41;;;;;;;17.25;13.00;;;;;;;10.48;89.04;100750.97;5056412;28;20040;-80
2021/04/11 09:51:37;;;;;;;16.45;12.50;;;;;;;10.38;88.43;100758.06;5054936;28;20048;-80
2021/04/11 09:54:20;;;;;;;15.48;11.07;;;;;;;10.24;88.20;100753.25;5059988;28;20045;-75
2021/04/11 09:57:18;;;;;;;15.20;10.93;;;;;;;10.10;89.28;100754.56;5055442;28;20048;-76
2021/04/11 10:00:15;;;;;;;11.95;9.02;;;;;;;10.03;89.09;100763.94;5070017;28;20042;-76
2021/04/11 10:02:47;;;;;;;11.85;8.52;;;;;;;9.96;88.15;100762.84;5075716;28;20051;-80
2021/04/11 10:05:31;;;;;;;11.35;8.27;;;;;;;9.88;89.25;100764.38;5111277;28;20044;-79
2021/04/11 10:08:15;;;;;;;11.32;8.95;;;;;;;9.86;89.31;100770.75;5055974;28;20055;-77
2021/04/11 10:10:59;;;;;;;11.18;8.73;;;;;;;9.85;89.42;100772.53;5065549;28;20069;-76
2021/04/11 10:13:37;;;;;;;12.38;8.65;;;;;;;9.85;88.90;100771.69;5048956;28;20052;-75
2021/04/11 10:16:24;;;;;;;11.48;8.43;;;;;;;9.82;89.06;100783.28;5042171;28;20041;-77
2021/04/11 10:19:11;;;;;;;13.82;11.75;;;;;;;10.03;89.17;100788.34;5088206;28;20044;-79
2021/04/11 10:22:03;;;;;;;15.48;12.38;;;;;;;10.16;89.42;100795.09;5064937;28;20082;-79
2021/04/11 10:24:44;;;;;;;15.85;13.60;;;;;;;10.28;89.30;100804.41;5069564;28;20383;-75
2021/04/11 10:27:27;;;;;;;17.38;12.57;;;;;;;10.31;87.12;100799.75;5088963;28;20072;-80
2021/04/11 10:29:54;;;;;;;15.32;13.07;;;;;;;10.32;87.36;100804.03;5069430;28;20040;-77
2021/04/11 10:32:47;;;;;;;14.77;13.07;;;;;;;10.41;86.47;100807.56;5065382;28;20052;-80
2021/04/11 10:35:13;;;;;;;16.90;13.40;;;;;;;10.52;84.59;100804.78;5070752;28;20403;-79
2021/04/11 10:37:46;;;;;;;15.43;13.77;;;;;;;10.79;84.99;100808.38;5047840;28;20053;-78
2021/04/11 10:40:30;;;;;;;15.90;13.18;;;;;;;10.88;82.86;100807.50;5020401;28;20041;-76
2021/04/11 10:43:32;;;;;;;14.70;13.13;;;;;;;11.42;82.85;100817.25;5071115;28;20096;-80
2021/04/11 10:46:04;;;;;;;13.15;11.73;;;;;;;11.51;80.42;100826.84;5053253;28;20044;-78
2021/04/11 10:49:00;;;;;;;12.63;10.85;;;;;;;11.22;79.97;100822.63;5056143;28;20104;-78
2021/04/11 10:51:46;;;;;;;11.55;10.35;;;;;;;11.20;79.86;100826.38;5069998;28;20143;-77
2021/04/11 10:54:43;;;;;;;12.82;11.48;;;;;;;10.94;81.30;100834.13;5037078;28;20052;-78
2021/04/11 10:57:49;;;;;;;13.95;11.27;;;;;;;10.75;80.77;100842.94;5053991;28;20057;-77
2021/04/11 11:00:37;;;;;;;13.95;12.45;;;;;;;10.40;81.06;100847.06;5069907;28;20049;-80
2021/04/11 11:03:29;;;;;;;14.38;12.82;;;;;;;10.33;81.59;100839.75;5063731;28;20044;-78
2021/04/11 11:06:14;;;;;;;14.85;12.60;;;;;;;10.22;82.57;100854.81;5057159;28;20058;-78
2021/04/11 11:08:56;;;;;;;17.52;15.05;;;;;;;10.05;82.48;100854.53;5040519;28;20048;-79
2021/04/11 11:11:38;;;;;;;16.25;14.18;;;;;;;9.92;82.05;100865.31;5046392;28;20044;-78
2021/04/11 11:14:25;;;;;;;19.67;16.17;;;;;;;9.68;82.23;100876.22;5090826;28;20045;-79
2021/04/11 11:17:04;;;;;;;19.60;15.70;;;;;;;9.53;83.81;100877.56;5071665;28;20064;-79
2021/04/11 11:19:38;;;;;;;20.92;16.55;;;;;;;9.45;84.08;100891.34;5058698;28;20048;-80
2021/04/11 11:22:41;;;;;;;22.08;18.25;;;;;;;9.23;83.69;100884.56;5077573;28;20045;-78
2021/04/11 11:25:32;;;;;;;24.77;18.33;;;;;;;9.03;83.99;100894.16;5070973;28;20098;-78
2021/04/11 11:28:16;;;;;;;21.15;16.98;;;;;;;9.02;83.60;100902.13;5068951;28;20094;-80
2021/04/11 11:31:07;;;;;;;21.00;16.88;;;;;;;8.76;82.85;100911.25;5106854;28;20036;-80
2021/04/11 11:33:54;;;;;;;19.45;16.42;;;;;;;8.72;82.65;100914.25;5070532;28;20032;-80
2021/04/11 11:36:32;;;;;;;18.35;15.55;;;;;;;8.52;82.12;100916.78;5069145;28;20044;-79
2021/04/11 11:39:17;;;;;;;23.98;17.67;;;;;;;8.37;83.53;100923.25;5077452;28;20047;-79
2021/04/11 11:42:19;;;;;;;24.17;19.00;;;;;;;8.35;83.51;100922.56;5081220;28;20044;-80
2021/04/11 11:45:21;;;;;;;24.60;19.38;;;;;;;8.16;84.95;100924.06;5067590;28;20045;-78
2021/04/11 11:48:11;;;;;;;24.55;18.58;;;;;;;7.92;84.18;100926.91;5064916;28;20142;-79
2021/04/11 11:50:47;;;;;;;24.05;18.63;;;;;;;7.95;84.08;100942.34;5069849;28;20040;-78
2021/04/11 11:53:18;;;;;;;27.05;20.20;;;;;;;7.82;84.96;100935.59;5071882;28;20036;-80
2021/04/11 11:56:03;;;;;;;28.13;20.23;;;;;;;7.69;83.70;100941.00;5057088;28;20071;-79
2021/04/11 11:58:38;;;;;;;27.40;19.45;;;;;;;7.36;84.73;100940.91;5020326;28;20060;-79
2021/04/11 12:01:21;;;;;;;25.45;18.20;;;;;;;7.11;85.66;100944.63;5033750;28;20045;-78
2021/04/11 12:03:47;;;;;;;23.00;17.42;;;;;;;7.08;86.19;100950.06;5054627;28;20049;-77
2021/04/11 12:06:24;;;;;;;20.95;15.57;;;;;;;7.18;85.79;100945.81;5050801;28;20041;-77
2021/04/11 12:09:20;;;;;;;18.15;13.48;;;;;;;7.33;84.16;100967.28;5052813;28;20037;-78